sensor_id;sensor_type;location;lat;lon;timestamp;P1;durP1;ratioP1;P2;durP2;ratioP2
13228;SDS011;6680;53.220;10.402;2023-10-13T00:01:09;3.13;;;2.73;;
13228;SDS011;6680;53.220;10.402;2023-10-13T00:03:38;11.13;;;3.20;;
13228;SDS011;6680;53.220;10.402;2023-10-13T00:06:05;4.37;;;3.00;;
13228;SDS011;6680;53.220;10.402;2023-10-13T00:08:33;6.50;;;3.07;;
13228;SDS011;6680;53.220;10.402;2023-10-13T00:11:01;4.57;;;3.17;;
13228;SDS011;6680;53.220;10.402;2023-10-13T00:13:30;5.63;;;3.70;;
13228;SDS011;6680;53.220;10.402;2023-10-13T00:16:07;6.70;;;3.63;;
13228;SDS011;6680;53.220;10.402;2023-10-13T00:18:35;7.47;;;3.63;;
13228;SDS011;6680;53.220;10.402;2023-10-13T00:21:07;5.53;;;3.53;;
13228;SDS011;6680;53.220;10.402;2023-10-13T00:23:38;3.53;;;3.17;;
13228;SDS011;6680;53.220;10.402;2023-10-13T00:26:08;8.03;;;3.10;;
13228;SDS011;6680;53.220;10.402;2023-10-13T00:28:36;9.57;;;4.17;;
13228;SDS011;6680;53.220;10.402;2023-10-13T00:31:12;7.07;;;3.53;;
13228;SDS011;6680;53.220;10.402;2023-10-13T00:33:39;7.60;;;3.80;;
13228;SDS011;6680;53.220;10.402;2023-10-13T00:36:07;8.10;;;3.80;;
13228;SDS011;6680;53.220;10.402;2023-10-13T00:38:42;5.37;;;3.20;;
13228;SDS011;6680;53.220;10.402;2023-10-13T00:41:13;7.33;;;3.90;;
13228;SDS011;6680;53.220;10.402;2023-10-13T00:43:45;6.17;;;3.30;;
13228;SDS011;6680;53.220;10.402;2023-10-13T00:46:30;9.50;;;4.40;;
13228;SDS011;6680;53.220;10.402;2023-10-13T00:48:58;6.40;;;4.20;;
13228;SDS011;6680;53.220;10.402;2023-10-13T00:51:26;9.47;;;3.93;;
13228;SDS011;6680;53.220;10.402;2023-10-13T00:53:58;8.03;;;3.80;;
13228;SDS011;6680;53.220;10.402;2023-10-13T00:56:27;8.17;;;4.47;;
13228;SDS011;6680;53.220;10.402;2023-10-13T00:58:56;8.43;;;3.97;;
13228;SDS011;6680;53.220;10.402;2023-10-13T01:01:27;7.67;;;4.10;;
13228;SDS011;6680;53.220;10.402;2023-10-13T01:03:59;6.73;;;4.10;;
13228;SDS011;6680;53.220;10.402;2023-10-13T01:06:25;11.03;;;5.20;;
13228;SDS011;6680;53.220;10.402;2023-10-13T01:08:57;7.73;;;4.47;;
13228;SDS011;6680;53.220;10.402;2023-10-13T01:11:25;4.57;;;3.93;;
13228;SDS011;6680;53.220;10.402;2023-10-13T01:13:54;10.07;;;4.70;;
13228;SDS011;6680;53.220;10.402;2023-10-13T01:16:22;6.03;;;4.50;;
13228;SDS011;6680;53.220;10.402;2023-10-13T01:18:51;6.00;;;4.27;;
13228;SDS011;6680;53.220;10.402;2023-10-13T01:21:25;9.90;;;4.87;;
13228;SDS011;6680;53.220;10.402;2023-10-13T01:23:54;9.80;;;4.10;;
13228;SDS011;6680;53.220;10.402;2023-10-13T01:26:21;8.20;;;4.80;;
13228;SDS011;6680;53.220;10.402;2023-10-13T01:28:49;9.40;;;5.10;;
13228;SDS011;6680;53.220;10.402;2023-10-13T01:31:17;8.33;;;5.20;;
13228;SDS011;6680;53.220;10.402;2023-10-13T01:33:56;6.93;;;4.60;;
13228;SDS011;6680;53.220;10.402;2023-10-13T01:36:24;7.70;;;4.27;;
13228;SDS011;6680;53.220;10.402;2023-10-13T01:38:53;9.33;;;4.97;;
13228;SDS011;6680;53.220;10.402;2023-10-13T01:41:21;12.37;;;4.67;;
13228;SDS011;6680;53.220;10.402;2023-10-13T01:43:47;7.67;;;5.10;;
13228;SDS011;6680;53.220;10.402;2023-10-13T01:46:14;8.90;;;4.30;;
13228;SDS011;6680;53.220;10.402;2023-10-13T01:48:41;12.60;;;5.90;;
13228;SDS011;6680;53.220;10.402;2023-10-13T01:51:09;6.93;;;4.97;;
13228;SDS011;6680;53.220;10.402;2023-10-13T01:53:37;9.30;;;5.50;;
13228;SDS011;6680;53.220;10.402;2023-10-13T01:56:05;12.73;;;5.47;;
13228;SDS011;6680;53.220;10.402;2023-10-13T01:58:35;7.90;;;5.20;;
13228;SDS011;6680;53.220;10.402;2023-10-13T02:01:02;8.43;;;5.80;;
13228;SDS011;6680;53.220;10.402;2023-10-13T02:03:32;9.17;;;5.90;;
13228;SDS011;6680;53.220;10.402;2023-10-13T02:05:58;11.20;;;5.53;;
13228;SDS011;6680;53.220;10.402;2023-10-13T02:08:29;9.73;;;5.03;;
13228;SDS011;6680;53.220;10.402;2023-10-13T02:10:56;7.07;;;5.53;;
13228;SDS011;6680;53.220;10.402;2023-10-13T02:13:27;9.13;;;5.13;;
13228;SDS011;6680;53.220;10.402;2023-10-13T02:15:55;10.17;;;6.47;;
13228;SDS011;6680;53.220;10.402;2023-10-13T02:18:27;12.37;;;6.37;;
13228;SDS011;6680;53.220;10.402;2023-10-13T02:20:52;8.90;;;5.43;;
13228;SDS011;6680;53.220;10.402;2023-10-13T02:23:29;8.47;;;5.40;;
13228;SDS011;6680;53.220;10.402;2023-10-13T02:25:55;6.87;;;5.30;;
13228;SDS011;6680;53.220;10.402;2023-10-13T02:28:30;7.83;;;5.47;;
13228;SDS011;6680;53.220;10.402;2023-10-13T02:31:01;7.67;;;5.53;;
13228;SDS011;6680;53.220;10.402;2023-10-13T02:33:29;9.93;;;5.77;;
13228;SDS011;6680;53.220;10.402;2023-10-13T02:35:56;8.20;;;5.33;;
13228;SDS011;6680;53.220;10.402;2023-10-13T02:38:23;14.00;;;6.67;;
13228;SDS011;6680;53.220;10.402;2023-10-13T02:40:57;9.33;;;6.17;;
13228;SDS011;6680;53.220;10.402;2023-10-13T02:43:32;11.80;;;6.20;;
13228;SDS011;6680;53.220;10.402;2023-10-13T02:45:58;10.73;;;5.97;;
13228;SDS011;6680;53.220;10.402;2023-10-13T02:48:26;10.13;;;6.50;;
13228;SDS011;6680;53.220;10.402;2023-10-13T02:50:57;10.80;;;5.47;;
13228;SDS011;6680;53.220;10.402;2023-10-13T02:53:27;7.40;;;5.60;;
13228;SDS011;6680;53.220;10.402;2023-10-13T02:55:55;12.03;;;6.47;;
13228;SDS011;6680;53.220;10.402;2023-10-13T02:58:29;8.43;;;5.60;;
13228;SDS011;6680;53.220;10.402;2023-10-13T03:01:06;12.97;;;6.93;;
13228;SDS011;6680;53.220;10.402;2023-10-13T03:03:46;7.50;;;5.90;;
13228;SDS011;6680;53.220;10.402;2023-10-13T03:06:16;9.60;;;6.10;;
13228;SDS011;6680;53.220;10.402;2023-10-13T03:08:47;16.10;;;6.43;;
13228;SDS011;6680;53.220;10.402;2023-10-13T03:11:13;8.30;;;5.87;;
13228;SDS011;6680;53.220;10.402;2023-10-13T03:13:45;9.13;;;5.63;;
13228;SDS011;6680;53.220;10.402;2023-10-13T03:16:13;7.80;;;5.40;;
13228;SDS011;6680;53.220;10.402;2023-10-13T03:18:45;9.80;;;6.33;;
13228;SDS011;6680;53.220;10.402;2023-10-13T03:21:19;9.03;;;5.80;;
13228;SDS011;6680;53.220;10.402;2023-10-13T03:23:55;10.93;;;6.60;;
13228;SDS011;6680;53.220;10.402;2023-10-13T03:26:21;11.43;;;5.90;;
13228;SDS011;6680;53.220;10.402;2023-10-13T03:28:48;7.27;;;6.13;;
13228;SDS011;6680;53.220;10.402;2023-10-13T03:31:19;12.60;;;6.73;;
13228;SDS011;6680;53.220;10.402;2023-10-13T03:33:52;9.70;;;6.00;;
13228;SDS011;6680;53.220;10.402;2023-10-13T03:36:24;13.30;;;6.63;;
13228;SDS011;6680;53.220;10.402;2023-10-13T03:39:21;9.97;;;7.33;;
13228;SDS011;6680;53.220;10.402;2023-10-13T03:41:53;10.87;;;7.30;;
13228;SDS011;6680;53.220;10.402;2023-10-13T03:44:21;11.17;;;7.50;;
13228;SDS011;6680;53.220;10.402;2023-10-13T03:46:50;11.97;;;7.40;;
13228;SDS011;6680;53.220;10.402;2023-10-13T03:49:19;12.57;;;7.63;;
13228;SDS011;6680;53.220;10.402;2023-10-13T03:51:47;10.03;;;7.33;;
13228;SDS011;6680;53.220;10.402;2023-10-13T03:54:15;13.10;;;7.83;;
13228;SDS011;6680;53.220;10.402;2023-10-13T03:56:43;11.87;;;7.63;;
13228;SDS011;6680;53.220;10.402;2023-10-13T03:59:11;12.00;;;7.27;;
13228;SDS011;6680;53.220;10.402;2023-10-13T04:01:44;11.57;;;8.20;;
13228;SDS011;6680;53.220;10.402;2023-10-13T04:04:15;11.87;;;8.00;;
13228;SDS011;6680;53.220;10.402;2023-10-13T04:06:59;17.93;;;8.40;;
13228;SDS011;6680;53.220;10.402;2023-10-13T04:09:45;15.20;;;9.10;;
13228;SDS011;6680;53.220;10.402;2023-10-13T04:12:32;15.87;;;10.07;;
13228;SDS011;6680;53.220;10.402;2023-10-13T04:15:16;17.03;;;9.80;;
13228;SDS011;6680;53.220;10.402;2023-10-13T04:17:49;17.83;;;10.47;;
13228;SDS011;6680;53.220;10.402;2023-10-13T04:20:17;17.70;;;10.47;;
13228;SDS011;6680;53.220;10.402;2023-10-13T04:22:58;17.53;;;10.23;;
13228;SDS011;6680;53.220;10.402;2023-10-13T04:25:51;15.50;;;10.13;;
13228;SDS011;6680;53.220;10.402;2023-10-13T04:28:32;17.40;;;10.60;;
13228;SDS011;6680;53.220;10.402;2023-10-13T04:31:05;18.90;;;11.27;;
13228;SDS011;6680;53.220;10.402;2023-10-13T04:33:37;17.57;;;10.80;;
13228;SDS011;6680;53.220;10.402;2023-10-13T04:36:18;22.23;;;12.17;;
13228;SDS011;6680;53.220;10.402;2023-10-13T04:39:01;19.60;;;12.13;;
13228;SDS011;6680;53.220;10.402;2023-10-13T04:41:36;18.43;;;11.87;;
13228;SDS011;6680;53.220;10.402;2023-10-13T04:44:04;17.03;;;11.17;;
13228;SDS011;6680;53.220;10.402;2023-10-13T04:46:52;21.00;;;12.53;;
13228;SDS011;6680;53.220;10.402;2023-10-13T04:49:35;20.10;;;12.47;;
13228;SDS011;6680;53.220;10.402;2023-10-13T04:52:18;22.00;;;11.17;;
13228;SDS011;6680;53.220;10.402;2023-10-13T04:55:17;21.07;;;12.47;;
13228;SDS011;6680;53.220;10.402;2023-10-13T04:58:02;20.50;;;13.23;;
13228;SDS011;6680;53.220;10.402;2023-10-13T05:00:39;20.03;;;12.30;;
13228;SDS011;6680;53.220;10.402;2023-10-13T05:03:40;26.87;;;13.57;;
13228;SDS011;6680;53.220;10.402;2023-10-13T05:06:19;19.70;;;12.50;;
13228;SDS011;6680;53.220;10.402;2023-10-13T05:09:05;21.97;;;13.57;;
13228;SDS011;6680;53.220;10.402;2023-10-13T05:11:49;20.73;;;13.67;;
13228;SDS011;6680;53.220;10.402;2023-10-13T05:14:33;25.53;;;14.70;;
13228;SDS011;6680;53.220;10.402;2023-10-13T05:17:18;22.50;;;13.47;;
13228;SDS011;6680;53.220;10.402;2023-10-13T05:20:02;21.13;;;13.97;;
13228;SDS011;6680;53.220;10.402;2023-10-13T05:22:47;25.80;;;14.47;;
13228;SDS011;6680;53.220;10.402;2023-10-13T05:25:35;27.83;;;15.37;;
13228;SDS011;6680;53.220;10.402;2023-10-13T05:28:22;21.33;;;13.90;;
13228;SDS011;6680;53.220;10.402;2023-10-13T05:31:12;21.23;;;13.30;;
13228;SDS011;6680;53.220;10.402;2023-10-13T05:33:56;24.50;;;14.97;;
13228;SDS011;6680;53.220;10.402;2023-10-13T05:36:41;21.03;;;13.80;;
13228;SDS011;6680;53.220;10.402;2023-10-13T05:39:25;26.17;;;15.27;;
13228;SDS011;6680;53.220;10.402;2023-10-13T05:42:10;23.23;;;14.73;;
13228;SDS011;6680;53.220;10.402;2023-10-13T05:44:55;26.83;;;14.77;;
13228;SDS011;6680;53.220;10.402;2023-10-13T05:47:42;24.63;;;14.47;;
13228;SDS011;6680;53.220;10.402;2023-10-13T05:50:26;20.67;;;14.33;;
13228;SDS011;6680;53.220;10.402;2023-10-13T05:53:15;20.00;;;13.67;;
13228;SDS011;6680;53.220;10.402;2023-10-13T05:56:00;25.77;;;14.83;;
13228;SDS011;6680;53.220;10.402;2023-10-13T05:58:46;24.00;;;14.43;;
13228;SDS011;6680;53.220;10.402;2023-10-13T06:01:30;20.10;;;13.60;;
13228;SDS011;6680;53.220;10.402;2023-10-13T06:04:15;21.60;;;13.70;;
13228;SDS011;6680;53.220;10.402;2023-10-13T06:06:59;26.23;;;13.60;;
13228;SDS011;6680;53.220;10.402;2023-10-13T06:09:43;20.17;;;12.90;;
13228;SDS011;6680;53.220;10.402;2023-10-13T06:12:28;22.77;;;14.20;;
13228;SDS011;6680;53.220;10.402;2023-10-13T06:15:13;21.27;;;13.87;;
13228;SDS011;6680;53.220;10.402;2023-10-13T06:18:12;23.70;;;14.40;;
13228;SDS011;6680;53.220;10.402;2023-10-13T06:20:57;20.93;;;14.10;;
13228;SDS011;6680;53.220;10.402;2023-10-13T06:23:44;19.40;;;12.47;;
13228;SDS011;6680;53.220;10.402;2023-10-13T06:26:25;21.30;;;13.60;;
13228;SDS011;6680;53.220;10.402;2023-10-13T06:29:10;22.90;;;13.93;;
13228;SDS011;6680;53.220;10.402;2023-10-13T06:31:46;26.47;;;14.30;;
13228;SDS011;6680;53.220;10.402;2023-10-13T06:34:13;25.03;;;14.37;;
13228;SDS011;6680;53.220;10.402;2023-10-13T06:36:40;20.30;;;13.13;;
13228;SDS011;6680;53.220;10.402;2023-10-13T06:39:11;19.63;;;13.40;;
13228;SDS011;6680;53.220;10.402;2023-10-13T06:42:00;20.33;;;13.57;;
13228;SDS011;6680;53.220;10.402;2023-10-13T06:44:27;18.23;;;13.37;;
13228;SDS011;6680;53.220;10.402;2023-10-13T06:46:58;16.63;;;12.27;;
13228;SDS011;6680;53.220;10.402;2023-10-13T06:49:29;20.10;;;12.60;;
13228;SDS011;6680;53.220;10.402;2023-10-13T06:51:57;17.53;;;12.27;;
13228;SDS011;6680;53.220;10.402;2023-10-13T06:54:25;17.10;;;11.87;;
13228;SDS011;6680;53.220;10.402;2023-10-13T06:56:53;17.70;;;11.67;;
13228;SDS011;6680;53.220;10.402;2023-10-13T06:59:20;16.17;;;11.63;;
13228;SDS011;6680;53.220;10.402;2023-10-13T07:01:51;19.90;;;10.87;;
13228;SDS011;6680;53.220;10.402;2023-10-13T07:04:19;15.70;;;10.70;;
13228;SDS011;6680;53.220;10.402;2023-10-13T07:06:47;15.93;;;11.80;;
13228;SDS011;6680;53.220;10.402;2023-10-13T07:09:14;16.40;;;10.00;;
13228;SDS011;6680;53.220;10.402;2023-10-13T07:12:04;14.90;;;10.50;;
13228;SDS011;6680;53.220;10.402;2023-10-13T07:14:32;16.37;;;10.50;;
13228;SDS011;6680;53.220;10.402;2023-10-13T07:17:00;12.90;;;9.47;;
13228;SDS011;6680;53.220;10.402;2023-10-13T07:19:31;15.47;;;9.43;;
13228;SDS011;6680;53.220;10.402;2023-10-13T07:21:59;13.37;;;10.37;;
13228;SDS011;6680;53.220;10.402;2023-10-13T07:24:44;14.37;;;10.17;;
13228;SDS011;6680;53.220;10.402;2023-10-13T07:27:13;12.80;;;9.60;;
13228;SDS011;6680;53.220;10.402;2023-10-13T07:29:47;16.03;;;10.83;;
13228;SDS011;6680;53.220;10.402;2023-10-13T07:32:21;12.47;;;9.90;;
13228;SDS011;6680;53.220;10.402;2023-10-13T07:34:53;13.37;;;9.60;;
13228;SDS011;6680;53.220;10.402;2023-10-13T07:37:22;15.70;;;10.13;;
13228;SDS011;6680;53.220;10.402;2023-10-13T07:39:53;13.57;;;8.97;;
13228;SDS011;6680;53.220;10.402;2023-10-13T07:42:22;11.47;;;8.87;;
13228;SDS011;6680;53.220;10.402;2023-10-13T07:44:55;12.30;;;8.97;;
13228;SDS011;6680;53.220;10.402;2023-10-13T07:47:22;11.40;;;8.70;;
13228;SDS011;6680;53.220;10.402;2023-10-13T07:49:54;14.10;;;9.17;;
13228;SDS011;6680;53.220;10.402;2023-10-13T07:52:22;11.97;;;8.60;;
13228;SDS011;6680;53.220;10.402;2023-10-13T07:55:01;9.60;;;8.23;;
13228;SDS011;6680;53.220;10.402;2023-10-13T07:57:36;11.30;;;8.50;;
13228;SDS011;6680;53.220;10.402;2023-10-13T08:00:18;11.57;;;8.07;;
13228;SDS011;6680;53.220;10.402;2023-10-13T08:02:55;11.03;;;8.17;;
13228;SDS011;6680;53.220;10.402;2023-10-13T08:05:35;12.60;;;8.97;;
13228;SDS011;6680;53.220;10.402;2023-10-13T08:08:21;14.00;;;8.60;;
13228;SDS011;6680;53.220;10.402;2023-10-13T08:10:50;11.60;;;8.63;;
13228;SDS011;6680;53.220;10.402;2023-10-13T08:13:20;9.63;;;7.30;;
13228;SDS011;6680;53.220;10.402;2023-10-13T08:15:48;10.53;;;7.87;;
13228;SDS011;6680;53.220;10.402;2023-10-13T08:18:17;10.77;;;7.50;;
13228;SDS011;6680;53.220;10.402;2023-10-13T08:20:56;9.73;;;7.07;;
13228;SDS011;6680;53.220;10.402;2023-10-13T08:23:28;10.53;;;6.90;;
13228;SDS011;6680;53.220;10.402;2023-10-13T08:26:20;7.60;;;6.00;;
13228;SDS011;6680;53.220;10.402;2023-10-13T08:29:05;7.37;;;6.13;;
13228;SDS011;6680;53.220;10.402;2023-10-13T08:31:46;6.90;;;5.80;;
13228;SDS011;6680;53.220;10.402;2023-10-13T08:34:29;6.07;;;5.27;;
13228;SDS011;6680;53.220;10.402;2023-10-13T08:37:04;6.30;;;5.13;;
13228;SDS011;6680;53.220;10.402;2023-10-13T08:39:44;5.37;;;4.47;;
13228;SDS011;6680;53.220;10.402;2023-10-13T08:42:40;5.20;;;4.30;;
13228;SDS011;6680;53.220;10.402;2023-10-13T08:45:35;5.20;;;4.37;;
13228;SDS011;6680;53.220;10.402;2023-10-13T08:48:25;4.67;;;4.10;;
13228;SDS011;6680;53.220;10.402;2023-10-13T08:50:57;5.13;;;4.63;;
13228;SDS011;6680;53.220;10.402;2023-10-13T08:53:32;4.57;;;3.83;;
13228;SDS011;6680;53.220;10.402;2023-10-13T08:56:09;4.87;;;3.67;;
13228;SDS011;6680;53.220;10.402;2023-10-13T08:58:42;5.90;;;4.20;;
13228;SDS011;6680;53.220;10.402;2023-10-13T09:01:36;6.83;;;3.90;;
13228;SDS011;6680;53.220;10.402;2023-10-13T09:04:11;4.27;;;3.73;;
13228;SDS011;6680;53.220;10.402;2023-10-13T09:06:47;4.07;;;3.67;;
13228;SDS011;6680;53.220;10.402;2023-10-13T09:09:43;4.63;;;3.80;;
13228;SDS011;6680;53.220;10.402;2023-10-13T09:12:24;5.47;;;3.90;;
13228;SDS011;6680;53.220;10.402;2023-10-13T09:15:01;4.50;;;3.93;;
13228;SDS011;6680;53.220;10.402;2023-10-13T09:17:31;5.40;;;3.93;;
13228;SDS011;6680;53.220;10.402;2023-10-13T09:20:04;4.50;;;3.90;;
13228;SDS011;6680;53.220;10.402;2023-10-13T09:22:49;3.97;;;3.47;;
13228;SDS011;6680;53.220;10.402;2023-10-13T09:25:34;4.73;;;3.43;;
13228;SDS011;6680;53.220;10.402;2023-10-13T09:28:03;4.50;;;3.67;;
13228;SDS011;6680;53.220;10.402;2023-10-13T09:30:43;5.17;;;3.77;;
13228;SDS011;6680;53.220;10.402;2023-10-13T09:33:10;5.17;;;3.80;;
13228;SDS011;6680;53.220;10.402;2023-10-13T09:35:41;5.43;;;3.37;;
13228;SDS011;6680;53.220;10.402;2023-10-13T09:38:14;5.93;;;3.87;;
13228;SDS011;6680;53.220;10.402;2023-10-13T09:40:42;3.87;;;3.57;;
13228;SDS011;6680;53.220;10.402;2023-10-13T09:43:15;4.63;;;3.97;;
13228;SDS011;6680;53.220;10.402;2023-10-13T09:45:45;5.47;;;3.80;;
13228;SDS011;6680;53.220;10.402;2023-10-13T09:48:31;5.33;;;4.03;;
13228;SDS011;6680;53.220;10.402;2023-10-13T09:50:59;4.67;;;4.27;;
13228;SDS011;6680;53.220;10.402;2023-10-13T09:53:27;5.27;;;3.60;;
13228;SDS011;6680;53.220;10.402;2023-10-13T09:55:58;5.80;;;3.90;;
13228;SDS011;6680;53.220;10.402;2023-10-13T09:58:39;6.73;;;4.47;;
13228;SDS011;6680;53.220;10.402;2023-10-13T10:01:27;6.87;;;4.23;;
13228;SDS011;6680;53.220;10.402;2023-10-13T10:04:08;4.63;;;4.23;;
13228;SDS011;6680;53.220;10.402;2023-10-13T10:06:37;4.13;;;3.70;;
13228;SDS011;6680;53.220;10.402;2023-10-13T10:09:10;3.70;;;3.30;;
13228;SDS011;6680;53.220;10.402;2023-10-13T10:14:41;6.00;;;3.80;;
13228;SDS011;6680;53.220;10.402;2023-10-13T10:17:37;5.20;;;4.20;;
13228;SDS011;6680;53.220;10.402;2023-10-13T10:20:06;7.13;;;4.33;;
13228;SDS011;6680;53.220;10.402;2023-10-13T10:22:54;5.50;;;3.93;;
13228;SDS011;6680;53.220;10.402;2023-10-13T10:25:28;7.00;;;4.07;;
13228;SDS011;6680;53.220;10.402;2023-10-13T10:28:01;8.03;;;4.00;;
13228;SDS011;6680;53.220;10.402;2023-10-13T10:30:31;4.50;;;4.10;;
13228;SDS011;6680;53.220;10.402;2023-10-13T10:32:59;4.97;;;4.07;;
13228;SDS011;6680;53.220;10.402;2023-10-13T10:35:32;6.67;;;3.77;;
13228;SDS011;6680;53.220;10.402;2023-10-13T10:38:06;6.83;;;4.30;;
13228;SDS011;6680;53.220;10.402;2023-10-13T10:40:37;5.17;;;4.23;;
13228;SDS011;6680;53.220;10.402;2023-10-13T10:43:18;6.67;;;4.23;;
13228;SDS011;6680;53.220;10.402;2023-10-13T10:45:45;5.43;;;4.37;;
13228;SDS011;6680;53.220;10.402;2023-10-13T10:48:14;5.80;;;4.40;;
13228;SDS011;6680;53.220;10.402;2023-10-13T10:50:51;4.83;;;3.80;;
13228;SDS011;6680;53.220;10.402;2023-10-13T10:53:20;7.77;;;3.73;;
13228;SDS011;6680;53.220;10.402;2023-10-13T10:56:03;5.63;;;3.83;;
13228;SDS011;6680;53.220;10.402;2023-10-13T10:58:34;6.73;;;3.90;;
13228;SDS011;6680;53.220;10.402;2023-10-13T11:01:09;5.97;;;4.30;;
13228;SDS011;6680;53.220;10.402;2023-10-13T11:03:37;4.93;;;3.93;;
13228;SDS011;6680;53.220;10.402;2023-10-13T11:06:07;3.67;;;3.37;;
13228;SDS011;6680;53.220;10.402;2023-10-13T11:08:42;6.60;;;3.90;;
13228;SDS011;6680;53.220;10.402;2023-10-13T11:11:16;5.50;;;3.50;;
13228;SDS011;6680;53.220;10.402;2023-10-13T11:13:57;6.17;;;3.53;;
13228;SDS011;6680;53.220;10.402;2023-10-13T11:16:44;5.50;;;4.20;;
13228;SDS011;6680;53.220;10.402;2023-10-13T11:19:15;3.97;;;3.23;;
13228;SDS011;6680;53.220;10.402;2023-10-13T11:21:45;8.10;;;4.53;;
13228;SDS011;6680;53.220;10.402;2023-10-13T11:24:13;6.77;;;4.13;;
13228;SDS011;6680;53.220;10.402;2023-10-13T11:26:42;4.23;;;3.30;;
13228;SDS011;6680;53.220;10.402;2023-10-13T11:29:15;3.47;;;3.07;;
13228;SDS011;6680;53.220;10.402;2023-10-13T11:31:45;4.37;;;3.70;;
13228;SDS011;6680;53.220;10.402;2023-10-13T11:34:18;5.33;;;3.57;;
13228;SDS011;6680;53.220;10.402;2023-10-13T11:36:46;5.43;;;3.83;;
13228;SDS011;6680;53.220;10.402;2023-10-13T11:39:12;5.20;;;3.47;;
13228;SDS011;6680;53.220;10.402;2023-10-13T11:41:44;4.60;;;3.67;;
13228;SDS011;6680;53.220;10.402;2023-10-13T11:44:20;4.57;;;3.50;;
13228;SDS011;6680;53.220;10.402;2023-10-13T11:46:56;5.33;;;4.20;;
13228;SDS011;6680;53.220;10.402;2023-10-13T11:49:32;6.37;;;3.57;;
13228;SDS011;6680;53.220;10.402;2023-10-13T11:52:02;6.10;;;3.80;;
13228;SDS011;6680;53.220;10.402;2023-10-13T11:54:43;4.10;;;3.53;;
13228;SDS011;6680;53.220;10.402;2023-10-13T11:57:12;7.17;;;4.30;;
13228;SDS011;6680;53.220;10.402;2023-10-13T11:59:43;8.20;;;3.83;;
13228;SDS011;6680;53.220;10.402;2023-10-13T12:02:21;5.70;;;3.30;;
13228;SDS011;6680;53.220;10.402;2023-10-13T12:05:05;4.60;;;3.77;;
13228;SDS011;6680;53.220;10.402;2023-10-13T12:07:40;6.60;;;3.80;;
13228;SDS011;6680;53.220;10.402;2023-10-13T12:10:16;3.90;;;3.60;;
13228;SDS011;6680;53.220;10.402;2023-10-13T12:12:57;9.67;;;4.77;;
13228;SDS011;6680;53.220;10.402;2023-10-13T12:15:31;5.10;;;3.77;;
13228;SDS011;6680;53.220;10.402;2023-10-13T12:18:13;3.77;;;3.43;;
13228;SDS011;6680;53.220;10.402;2023-10-13T12:20:41;4.50;;;3.27;;
13228;SDS011;6680;53.220;10.402;2023-10-13T12:23:10;3.73;;;3.40;;
13228;SDS011;6680;53.220;10.402;2023-10-13T12:25:42;8.03;;;3.53;;
13228;SDS011;6680;53.220;10.402;2023-10-13T12:28:25;7.73;;;4.33;;
13228;SDS011;6680;53.220;10.402;2023-10-13T12:30:55;5.30;;;3.13;;
13228;SDS011;6680;53.220;10.402;2023-10-13T12:33:24;4.77;;;3.63;;
13228;SDS011;6680;53.220;10.402;2023-10-13T12:35:55;6.43;;;4.03;;
13228;SDS011;6680;53.220;10.402;2023-10-13T12:38:40;9.60;;;4.17;;
13228;SDS011;6680;53.220;10.402;2023-10-13T12:41:24;5.43;;;4.03;;
13228;SDS011;6680;53.220;10.402;2023-10-13T12:44:09;9.07;;;3.80;;
13228;SDS011;6680;53.220;10.402;2023-10-13T12:46:55;4.00;;;2.93;;
13228;SDS011;6680;53.220;10.402;2023-10-13T12:49:39;7.53;;;3.77;;
13228;SDS011;6680;53.220;10.402;2023-10-13T12:52:22;7.53;;;4.13;;
13228;SDS011;6680;53.220;10.402;2023-10-13T12:54:51;10.07;;;3.97;;
13228;SDS011;6680;53.220;10.402;2023-10-13T12:57:31;4.27;;;3.87;;
13228;SDS011;6680;53.220;10.402;2023-10-13T12:59:58;7.20;;;3.70;;
13228;SDS011;6680;53.220;10.402;2023-10-13T13:02:27;7.97;;;3.33;;
13228;SDS011;6680;53.220;10.402;2023-10-13T13:04:55;6.27;;;3.87;;
13228;SDS011;6680;53.220;10.402;2023-10-13T13:07:30;6.83;;;4.03;;
13228;SDS011;6680;53.220;10.402;2023-10-13T13:10:08;6.03;;;3.57;;
13228;SDS011;6680;53.220;10.402;2023-10-13T13:12:36;3.97;;;3.60;;
13228;SDS011;6680;53.220;10.402;2023-10-13T13:15:03;7.83;;;4.37;;
13228;SDS011;6680;53.220;10.402;2023-10-13T13:17:35;9.50;;;4.93;;
13228;SDS011;6680;53.220;10.402;2023-10-13T13:20:04;6.90;;;3.80;;
13228;SDS011;6680;53.220;10.402;2023-10-13T13:22:36;7.57;;;4.50;;
13228;SDS011;6680;53.220;10.402;2023-10-13T13:25:04;5.63;;;4.10;;
13228;SDS011;6680;53.220;10.402;2023-10-13T13:27:35;5.67;;;3.77;;
13228;SDS011;6680;53.220;10.402;2023-10-13T13:30:07;9.63;;;4.10;;
13228;SDS011;6680;53.220;10.402;2023-10-13T13:32:39;9.43;;;4.50;;
13228;SDS011;6680;53.220;10.402;2023-10-13T13:35:06;5.60;;;3.83;;
13228;SDS011;6680;53.220;10.402;2023-10-13T13:37:38;5.90;;;3.57;;
13228;SDS011;6680;53.220;10.402;2023-10-13T13:40:08;13.50;;;4.27;;
13228;SDS011;6680;53.220;10.402;2023-10-13T13:42:43;8.87;;;5.37;;
13228;SDS011;6680;53.220;10.402;2023-10-13T13:45:13;11.67;;;4.03;;
13228;SDS011;6680;53.220;10.402;2023-10-13T13:47:48;10.83;;;5.10;;
13228;SDS011;6680;53.220;10.402;2023-10-13T13:50:18;12.93;;;4.60;;
13228;SDS011;6680;53.220;10.402;2023-10-13T13:52:50;7.53;;;4.57;;
13228;SDS011;6680;53.220;10.402;2023-10-13T13:55:18;8.97;;;3.70;;
13228;SDS011;6680;53.220;10.402;2023-10-13T13:57:45;6.97;;;3.83;;
13228;SDS011;6680;53.220;10.402;2023-10-13T14:00:15;6.63;;;4.47;;
13228;SDS011;6680;53.220;10.402;2023-10-13T14:02:45;6.70;;;3.70;;
13228;SDS011;6680;53.220;10.402;2023-10-13T14:05:14;4.40;;;4.00;;
13228;SDS011;6680;53.220;10.402;2023-10-13T14:07:42;6.20;;;4.00;;
13228;SDS011;6680;53.220;10.402;2023-10-13T14:10:14;15.53;;;4.00;;
13228;SDS011;6680;53.220;10.402;2023-10-13T14:12:56;3.90;;;3.50;;
13228;SDS011;6680;53.220;10.402;2023-10-13T14:15:31;9.90;;;4.63;;
13228;SDS011;6680;53.220;10.402;2023-10-13T14:18:05;8.37;;;4.57;;
13228;SDS011;6680;53.220;10.402;2023-10-13T14:20:39;7.83;;;3.73;;
13228;SDS011;6680;53.220;10.402;2023-10-13T14:23:07;5.80;;;4.70;;
13228;SDS011;6680;53.220;10.402;2023-10-13T14:25:36;8.20;;;4.83;;
13228;SDS011;6680;53.220;10.402;2023-10-13T14:28:04;8.47;;;4.60;;
13228;SDS011;6680;53.220;10.402;2023-10-13T14:30:31;10.80;;;4.00;;
13228;SDS011;6680;53.220;10.402;2023-10-13T14:32:58;6.90;;;4.27;;
13228;SDS011;6680;53.220;10.402;2023-10-13T14:35:26;11.27;;;4.50;;
13228;SDS011;6680;53.220;10.402;2023-10-13T14:37:55;7.03;;;4.00;;
13228;SDS011;6680;53.220;10.402;2023-10-13T14:40:22;11.57;;;5.33;;
13228;SDS011;6680;53.220;10.402;2023-10-13T14:42:49;13.00;;;4.50;;
13228;SDS011;6680;53.220;10.402;2023-10-13T14:45:15;8.73;;;4.07;;
13228;SDS011;6680;53.220;10.402;2023-10-13T14:47:42;4.53;;;3.80;;
13228;SDS011;6680;53.220;10.402;2023-10-13T14:50:11;7.87;;;4.33;;
13228;SDS011;6680;53.220;10.402;2023-10-13T14:52:44;11.20;;;5.17;;
13228;SDS011;6680;53.220;10.402;2023-10-13T14:55:13;5.80;;;4.10;;
13228;SDS011;6680;53.220;10.402;2023-10-13T14:57:46;10.17;;;4.60;;
13228;SDS011;6680;53.220;10.402;2023-10-13T15:00:15;7.87;;;4.83;;
13228;SDS011;6680;53.220;10.402;2023-10-13T15:02:49;11.30;;;5.10;;
13228;SDS011;6680;53.220;10.402;2023-10-13T15:05:17;6.90;;;4.87;;
13228;SDS011;6680;53.220;10.402;2023-10-13T15:07:44;8.37;;;5.17;;
13228;SDS011;6680;53.220;10.402;2023-10-13T15:10:13;8.40;;;5.00;;
13228;SDS011;6680;53.220;10.402;2023-10-13T15:12:41;7.63;;;4.60;;
13228;SDS011;6680;53.220;10.402;2023-10-13T15:15:09;16.10;;;5.77;;
13228;SDS011;6680;53.220;10.402;2023-10-13T15:17:41;7.87;;;4.53;;
13228;SDS011;6680;53.220;10.402;2023-10-13T15:20:08;7.97;;;4.77;;
13228;SDS011;6680;53.220;10.402;2023-10-13T15:22:41;8.27;;;4.73;;
13228;SDS011;6680;53.220;10.402;2023-10-13T15:25:08;9.40;;;4.73;;